Time;durP1;ratioP1;P1;durP2;ratioP2;P2;SDS_P1;SDS_P2;PMS_P1;PMS_P2;Temp;Humidity;BMP_temperature;BMP_pressure;BME280_temperature;BME280_humidity;BME280_pressure;Samples;Min_cycle;Max_cycle;Signal;HPM_P1;HPM_P2
2023/05/18 00:02:25;;;;;;;5.95;2.05;;;11.10;97.70;;;;;;4825714;29;20053;-86
2023/05/18 00:04:51;;;;;;;6.30;1.60;;;11.00;97.80;;;;;;4826716;29;20848;-87
2023/05/18 00:07:16;;;;;;;9.00;1.90;;;11.10;97.70;;;;;;4837881;24;20065;-86
2023/05/18 00:09:42;;;;;;;6.53;1.80;;;11.00;97.60;;;;;;4825166;29;20050;-86
2023/05/18 00:12:08;;;;;;;6.95;1.67;;;11.00;97.70;;;;;;4842795;29;20426;-86
2023/05/18 00:14:34;;;;;;;8.38;1.90;;;11.00;97.70;;;;;;4836815;29;20042;-86
2023/05/18 00:17:00;;;;;;;6.82;1.90;;;10.90;97.60;;;;;;4836491;29;20042;-86
2023/05/18 00:19:27;;;;;;;9.18;2.00;;;10.90;97.60;;;;;;4824372;29;20050;-86
2023/05/18 00:21:54;;;;;;;7.55;1.95;;;10.80;97.60;;;;;;4839890;29;20128;-87
2023/05/18 00:24:20;;;;;;;7.15;1.77;;;10.80;97.60;;;;;;4841750;29;20120;-87
2023/05/18 00:26:49;;;;;;;5.75;1.65;;;10.80;97.60;;;;;;4824829;29;20057;-86
2023/05/18 00:29:15;;;;;;;6.07;1.67;;;10.70;97.60;;;;;;4826504;29;20479;-87
2023/05/18 00:31:42;;;;;;;6.65;1.90;;;10.70;97.60;;;;;;4824474;29;20050;-87
2023/05/18 00:34:08;;;;;;;7.05;1.95;;;10.70;97.80;;;;;;4825262;29;20109;-86
2023/05/18 00:36:35;;;;;;;6.28;1.80;;;10.60;97.90;;;;;;4834687;29;20116;-86
2023/05/18 00:39:01;;;;;;;5.82;1.83;;;10.60;98.00;;;;;;4829967;29;20403;-87
2023/05/18 00:41:27;;;;;;;6.78;1.58;;;10.60;98.10;;;;;;4833349;29;20046;-86
2023/05/18 00:43:54;;;;;;;6.25;1.92;;;10.50;98.10;;;;;;4848995;24;20480;-87
2023/05/18 00:46:27;;;;;;;6.38;1.58;;;10.50;98.10;;;;;;4845737;29;20499;-86
2023/05/18 00:48:54;;;;;;;;;;;10.50;97.90;;;;;;4851494;29;20128;-87
2023/05/18 00:51:22;;;;;;;7.05;1.92;;;10.40;96.90;;;;;;4860103;29;19966;-86
2023/05/18 00:53:52;;;;;;;7.88;1.92;;;10.40;97.90;;;;;;4860119;29;20046;-86
2023/05/18 00:56:20;;;;;;;6.18;1.90;;;10.40;97.90;;;;;;4861911;29;20104;-87
2023/05/18 00:58:46;;;;;;;7.97;2.13;;;10.30;97.80;;;;;;4830373;29;20058;-86
2023/05/18 01:01:12;;;;;;;6.30;1.95;;;10.30;98.00;;;;;;4901026;24;20126;-86
2023/05/18 01:03:38;;;;;;;7.10;1.83;;;10.40;98.20;;;;;;4858244;29;20119;-87
2023/05/18 01:06:09;;;;;;;7.00;2.20;;;10.30;98.20;;;;;;4850591;29;20518;-86
2023/05/18 01:08:36;;;;;;;5.63;1.80;;;10.30;98.30;;;;;;4860962;29;20081;-86
2023/05/18 01:11:17;;;;;;;7.35;1.88;;;10.30;98.20;;;;;;4859458;29;20041;-86
2023/05/18 01:13:55;;;;;;;7.43;2.10;;;10.20;98.20;;;;;;4843291;29;20514;-86
2023/05/18 01:16:26;;;;;;;5.82;1.73;;;10.20;98.10;;;;;;4851125;29;20407;-86
2023/05/18 01:19:06;;;;;;;11.93;2.13;;;10.20;98.00;;;;;;4838366;29;20042;-86
2023/05/18 01:21:53;;;;;;;4.65;1.73;;;10.20;98.10;;;;;;4842150;29;20042;-86
2023/05/18 01:24:24;;;;;;;7.10;1.92;;;10.10;98.10;;;;;;4842542;29;20046;-86
2023/05/18 01:26:56;;;;;;;8.55;1.90;;;10.10;98.00;;;;;;4848067;29;20050;-87
2023/05/18 01:29:23;;;;;;;7.20;1.88;;;10.10;97.90;;;;;;4841565;29;20078;-86
2023/05/18 01:31:49;;;;;;;6.38;1.80;;;10.00;97.80;;;;;;4852238;29;20042;-86
2023/05/18 01:34:15;;;;;;;6.10;1.85;;;10.00;97.70;;;;;;4852618;29;20045;-86
2023/05/18 01:36:41;;;;;;;6.72;2.28;;;10.00;97.70;;;;;;4849896;29;20042;-86
2023/05/18 01:39:08;;;;;;;5.82;1.77;;;10.00;97.90;;;;;;4842372;29;20495;-86
2023/05/18 01:41:38;;;;;;;5.43;1.70;;;9.90;97.90;;;;;;4856445;29;20057;-87
2023/05/18 01:44:28;;;;;;;5.50;1.90;;;9.90;97.70;;;;;;4842400;29;20060;-86
2023/05/18 01:46:57;;;;;;;7.38;2.10;;;9.90;97.40;;;;;;4848560;29;20050;-86
2023/05/18 01:49:29;;;;;;;8.65;2.10;;;9.80;97.70;;;;;;4843772;29;20054;-86
2023/05/18 01:51:59;;;;;;;4.30;1.60;;;9.80;97.70;;;;;;4852591;29;20054;-86
2023/05/18 01:54:29;;;;;;;6.85;2.20;;;9.80;97.60;;;;;;4860578;29;20062;-86
2023/05/18 01:56:56;;;;;;;6.43;1.95;;;9.80;97.60;;;;;;4847760;29;20037;-86
2023/05/18 01:59:22;;;;;;;7.82;1.75;;;9.80;97.70;;;;;;4859660;29;20057;-86
2023/05/18 02:01:48;;;;;;;8.85;1.83;;;9.80;97.90;;;;;;4849169;29;20137;-87
2023/05/18 02:04:17;;;;;;;9.60;1.90;;;9.70;97.80;;;;;;4854246;29;20177;-86
2023/05/18 02:06:42;;;;;;;6.97;1.80;;;9.70;97.70;;;;;;4841580;29;20049;-86
2023/05/18 02:09:08;;;;;;;4.70;1.80;;;9.70;97.70;;;;;;4859490;29;20559;-86
2023/05/18 02:11:34;;;;;;;7.97;2.00;;;9.70;97.70;;;;;;4846863;29;20064;-86
2023/05/18 02:14:00;;;;;;;6.95;2.08;;;9.70;97.80;;;;;;4842661;29;20398;-86
2023/05/18 02:16:25;;;;;;;6.28;1.95;;;9.70;97.80;;;;;;4841695;29;20569;-86
2023/05/18 02:18:52;;;;;;;6.38;1.60;;;9.60;97.90;;;;;;4840461;29;20137;-86
2023/05/18 02:21:18;;;;;;;7.18;2.03;;;9.70;98.40;;;;;;4842671;29;20057;-86
2023/05/18 02:23:43;;;;;;;6.53;1.80;;;9.70;98.10;;;;;;4842585;29;20041;-86
2023/05/18 02:26:09;;;;;;;7.25;1.92;;;9.70;98.20;;;;;;4841684;29;20052;-86
2023/05/18 02:28:38;;;;;;;8.75;1.80;;;9.70;98.20;;;;;;4842479;29;20042;-87
2023/05/18 02:31:09;;;;;;;6.40;1.70;;;9.70;98.20;;;;;;4849742;29;20124;-86
2023/05/18 02:33:38;;;;;;;5.63;1.50;;;9.70;98.30;;;;;;4847493;29;20042;-86
2023/05/18 02:36:11;;;;;;;6.00;1.70;;;9.70;98.30;;;;;;4842327;29;20074;-86
2023/05/18 02:38:42;;;;;;;7.07;2.10;;;9.70;98.40;;;;;;4845985;29;20053;-86
2023/05/18 02:41:08;;;;;;;7.15;1.77;;;9.70;98.30;;;;;;4856983;29;20391;-85
2023/05/18 02:43:34;;;;;;;5.90;1.77;;;9.70;98.30;;;;;;4848637;29;20045;-86
2023/05/18 02:46:00;;;;;;;6.05;1.92;;;9.70;98.30;;;;;;4860588;29;20128;-86
2023/05/18 02:48:26;;;;;;;5.00;1.52;;;9.70;98.30;;;;;;4858511;29;20136;-86
2023/05/18 02:50:52;;;;;;;7.53;1.98;;;9.60;98.40;;;;;;4840984;29;20198;-86
2023/05/18 02:53:18;;;;;;;4.80;1.80;;;9.70;98.30;;;;;;4841880;29;20057;-85
2023/05/18 02:55:45;;;;;;;5.50;1.85;;;9.60;98.20;;;;;;4842157;29;20050;-86
2023/05/18 02:58:14;;;;;;;6.20;1.90;;;9.60;98.20;;;;;;4833716;29;20078;-85
2023/05/18 03:00:40;;;;;;;5.50;1.73;;;9.70;98.30;;;;;;4861424;23;20057;-86
2023/05/18 03:03:09;;;;;;;7.28;1.70;;;9.70;98.30;;;;;;4849581;29;20050;-86
2023/05/18 03:05:35;;;;;;;6.57;1.77;;;9.60;98.20;;;;;;4841793;29;20041;-86
2023/05/18 03:08:01;;;;;;;4.93;1.63;;;9.70;98.00;;;;;;4841470;29;20046;-86
2023/05/18 03:10:27;;;;;;;6.78;1.75;;;9.70;98.00;;;;;;4859928;29;20033;-86
2023/05/18 03:12:52;;;;;;;5.55;1.83;;;9.60;97.90;;;;;;4839931;29;20117;-86
2023/05/18 03:15:19;;;;;;;5.22;2.00;;;9.60;97.90;;;;;;4856861;29;20491;-86
2023/05/18 03:17:45;;;;;;;7.30;1.88;;;9.60;97.90;;;;;;4852863;29;20041;-86
2023/05/18 03:20:13;;;;;;;7.43;1.70;;;9.60;97.90;;;;;;4856693;29;20065;-86
2023/05/18 03:22:39;;;;;;;5.88;1.85;;;9.60;97.70;;;;;;4859449;29;20047;-85
2023/05/18 03:25:07;;;;;;;5.43;1.90;;;9.60;97.80;;;;;;4843532;29;20094;-86
2023/05/18 03:27:33;;;;;;;6.72;2.00;;;9.60;98.00;;;;;;4841578;29;20406;-86
2023/05/18 03:29:59;;;;;;;4.50;1.60;;;9.60;97.90;;;;;;4855345;29;20121;-86
2023/05/18 03:32:30;;;;;;;5.47;2.00;;;9.50;97.80;;;;;;4842232;29;20053;-86
2023/05/18 03:34:55;;;;;;;6.45;1.88;;;9.50;97.90;;;;;;4841774;29;20057;-86
2023/05/18 03:37:21;;;;;;;4.80;1.52;;;9.50;97.90;;;;;;4840384;29;20058;-86
2023/05/18 03:39:49;;;;;;;5.63;1.90;;;9.50;98.00;;;;;;4842093;29;20499;-86
2023/05/18 03:42:14;;;;;;;5.25;1.73;;;9.50;98.10;;;;;;4840110;29;20054;-86
2023/05/18 03:44:40;;;;;;;4.75;1.60;;;9.50;98.10;;;;;;4841339;29;20077;-86
2023/05/18 03:47:06;;;;;;;4.07;1.60;;;9.50;98.00;;;;;;4841513;29;20121;-86
2023/05/18 03:49:33;;;;;;;6.20;1.90;;;9.50;98.00;;;;;;4852992;29;20077;-86
2023/05/18 03:52:01;;;;;;;4.78;1.63;;;9.50;98.20;;;;;;4863114;29;20056;-86
2023/05/18 03:54:27;;;;;;;5.10;1.70;;;9.50;98.20;;;;;;4857220;29;20038;-86
2023/05/18 03:56:52;;;;;;;6.15;1.90;;;9.50;98.30;;;;;;4849137;29;20066;-86
2023/05/18 03:59:18;;;;;;;5.13;1.60;;;9.50;98.10;;;;;;4861573;29;20549;-86
2023/05/18 04:01:44;;;;;;;6.18;1.80;;;9.50;98.10;;;;;;4841577;29;20058;-86
2023/05/18 04:04:16;;;;;;;4.70;1.77;;;9.50;98.00;;;;;;4838499;29;20388;-86
2023/05/18 04:06:45;;;;;;;6.10;1.80;;;9.50;98.00;;;;;;4848920;29;20543;-86
2023/05/18 04:09:16;;;;;;;6.35;1.98;;;9.40;98.00;;;;;;4847144;29;20187;-86
2023/05/18 04:11:42;;;;;;;5.95;1.63;;;9.40;98.10;;;;;;4862139;29;20045;-86
2023/05/18 04:14:08;;;;;;;4.28;1.65;;;9.40;98.00;;;;;;4862167;29;20048;-86
2023/05/18 04:16:34;;;;;;;5.10;1.73;;;9.40;98.20;;;;;;4849853;29;20049;-86
2023/05/18 04:19:00;;;;;;;3.75;1.65;;;9.40;98.20;;;;;;4842914;29;20141;-86
2023/05/18 04:21:26;;;;;;;5.07;1.83;;;9.40;98.20;;;;;;4858971;29;20050;-85
2023/05/18 04:23:51;;;;;;;6.22;1.95;;;9.40;98.10;;;;;;4862495;29;20054;-87
2023/05/18 04:26:18;;;;;;;5.65;1.48;;;9.40;98.00;;;;;;4845229;29;20411;-85
2023/05/18 04:28:48;;;;;;;5.80;1.70;;;9.40;97.90;;;;;;4862410;29;20109;-85
2023/05/18 04:31:20;;;;;;;4.88;1.80;;;9.40;97.90;;;;;;4845077;29;20042;-86
2023/05/18 04:33:46;;;;;;;6.35;1.92;;;9.40;98.00;;;;;;4840332;29;20106;-86
2023/05/18 04:36:12;;;;;;;5.50;1.75;;;9.40;98.10;;;;;;4858562;29;20406;-86
2023/05/18 04:38:38;;;;;;;5.50;1.88;;;9.40;98.20;;;;;;4859354;29;20049;-86
2023/05/18 04:41:07;;;;;;;4.95;1.65;;;9.40;98.20;;;;;;4842856;29;20068;-85
2023/05/18 04:43:35;;;;;;;6.10;1.73;;;9.40;98.30;;;;;;4843299;29;20042;-85
2023/05/18 04:46:00;;;;;;;4.57;1.90;;;9.50;98.40;;;;;;4839045;29;20709;-86
2023/05/18 04:48:28;;;;;;;5.15;1.70;;;9.40;98.30;;;;;;4841725;29;20071;-85
2023/05/18 04:50:54;;;;;;;5.55;1.60;;;9.50;98.40;;;;;;4841140;29;20046;-85
2023/05/18 04:53:21;;;;;;;5.35;1.73;;;9.50;98.30;;;;;;4841903;29;20041;-86
2023/05/18 04:55:53;;;;;;;6.28;1.65;;;9.50;98.30;;;;;;4841604;29;20049;-86
2023/05/18 04:58:18;;;;;;;8.05;1.70;;;9.50;98.40;;;;;;4842206;29;20049;-85
2023/05/18 05:00:44;;;;;;;7.43;2.17;;;9.50;98.30;;;;;;4839875;29;20046;-85
2023/05/18 05:03:10;;;;;;;5.72;1.70;;;9.60;98.30;;;;;;4841836;29;20563;-87
2023/05/18 05:05:35;;;;;;;7.10;2.00;;;9.50;98.30;;;;;;4841055;29;20042;-86
2023/05/18 05:08:03;;;;;;;5.40;1.92;;;9.50;98.30;;;;;;4841987;29;20451;-86
2023/05/18 05:10:32;;;;;;;5.30;1.70;;;9.60;98.30;;;;;;4841697;29;20132;-87
2023/05/18 05:12:57;;;;;;;6.47;1.75;;;9.60;98.20;;;;;;4845051;29;20426;-86
2023/05/18 05:15:23;;;;;;;6.25;1.67;;;9.60;98.10;;;;;;4841467;29;20038;-86
2023/05/18 05:17:49;;;;;;;5.93;2.00;;;9.60;98.10;;;;;;4825320;29;20042;-86
2023/05/18 05:20:15;;;;;;;5.13;1.75;;;9.60;98.10;;;;;;4827409;29;20054;-86
2023/05/18 05:22:41;;;;;;;4.63;1.60;;;9.60;98.10;;;;;;4857912;29;20045;-86
2023/05/18 05:25:07;;;;;;;5.40;1.60;;;9.60;98.10;;;;;;4860100;29;20053;-85
2023/05/18 05:27:33;;;;;;;4.30;1.50;;;9.60;98.00;;;;;;4843252;29;20042;-86
2023/05/18 05:29:59;;;;;;;6.65;1.80;;;9.60;98.00;;;;;;4846162;29;20069;-86
2023/05/18 05:32:24;;;;;;;6.70;1.90;;;9.70;98.00;;;;;;4843475;29;20038;-87
2023/05/18 05:34:52;;;;;;;5.18;1.70;;;9.70;98.10;;;;;;4845498;29;20152;-88
2023/05/18 05:37:34;;;;;;;5.47;1.83;;;9.70;98.10;;;;;;4857223;29;20094;-87
2023/05/18 05:40:19;;;;;;;3.90;1.52;;;9.70;98.20;;;;;;4876461;29;20045;-87
2023/05/18 05:42:47;;;;;;;6.90;1.92;;;9.70;97.90;;;;;;4833267;29;20042;-87
2023/05/18 05:45:13;;;;;;;4.60;1.50;;;9.70;98.00;;;;;;4835043;29;20072;-87
2023/05/18 05:48:03;;;;;;;5.72;1.60;;;9.80;98.00;;;;;;4836301;29;20537;-87
2023/05/18 05:50:34;;;;;;;6.55;1.92;;;9.80;97.90;;;;;;4846302;29;20053;-89
2023/05/18 05:53:00;;;;;;;5.07;1.55;;;9.80;98.10;;;;;;4857844;29;20052;-87
2023/05/18 05:55:35;;;;;;;7.32;1.80;;;9.80;98.00;;;;;;4832336;29;20031;-87
2023/05/18 05:58:27;;;;;;;5.05;1.60;;;9.80;97.90;;;;;;4832425;29;20089;-90
2023/05/18 06:00:52;;;;;;;4.95;2.05;;;9.90;97.80;;;;;;4840287;29;20057;-82
2023/05/18 06:03:18;;;;;;;5.53;1.80;;;9.90;97.90;;;;;;4841605;29;20057;-83
2023/05/18 06:05:44;;;;;;;4.00;1.40;;;9.90;97.90;;;;;;4872630;29;20050;-82
2023/05/18 06:08:09;;;;;;;5.85;1.67;;;9.90;97.90;;;;;;4837559;29;20085;-82
2023/05/18 06:10:35;;;;;;;5.47;1.95;;;9.90;97.80;;;;;;4831463;29;20082;-84
2023/05/18 06:13:01;;;;;;;5.57;1.73;;;10.00;97.90;;;;;;4843575;29;20136;-86
2023/05/18 06:15:26;;;;;;;9.13;1.92;;;10.00;97.80;;;;;;4835793;24;20138;-85
2023/05/18 06:17:52;;;;;;;6.70;1.70;;;10.00;97.60;;;;;;4847942;24;20054;-86
2023/05/18 06:20:27;;;;;;;5.43;1.60;;;10.00;97.30;;;;;;4853961;29;20138;-85
2023/05/18 06:22:56;;;;;;;5.13;1.73;;;10.10;97.40;;;;;;4857431;29;20037;-86
2023/05/18 06:25:34;;;;;;;5.68;1.90;;;10.10;97.80;;;;;;4855999;29;20041;-86
2023/05/18 06:28:05;;;;;;;5.20;1.52;;;10.10;97.40;;;;;;4842192;29;20060;-86
2023/05/18 06:30:43;;;;;;;5.05;1.67;;;10.10;97.50;;;;;;4846340;29;20363;-85
2023/05/18 06:33:24;;;;;;;9.13;1.88;;;10.20;97.50;;;;;;4860373;29;20045;-84
2023/05/18 06:36:01;;;;;;;6.35;1.63;;;10.20;96.60;;;;;;4845671;29;20062;-86
2023/05/18 06:38:33;;;;;;;5.75;1.65;;;10.20;96.90;;;;;;4849166;29;20485;-84
2023/05/18 06:41:02;;;;;;;6.72;1.80;;;10.20;97.10;;;;;;4842614;29;20131;-84
2023/05/18 06:43:34;;;;;;;5.53;1.60;;;10.30;97.10;;;;;;4841888;29;20175;-84
2023/05/18 06:46:02;;;;;;;5.47;1.52;;;10.40;97.10;;;;;;4842474;29;20054;-84
2023/05/18 06:48:36;;;;;;;5.00;1.50;;;10.40;97.10;;;;;;4849649;29;20140;-84
2023/05/18 06:51:22;;;;;;;11.10;2.08;;;10.40;97.00;;;;;;4852861;29;20073;-85
2023/05/18 06:53:47;;;;;;;5.53;1.60;;;10.40;96.30;;;;;;4841132;29;20455;-85
2023/05/18 06:56:17;;;;;;;5.80;1.80;;;10.50;96.20;;;;;;4844496;29;20060;-84
2023/05/18 06:58:43;;;;;;;6.45;1.77;;;10.50;96.40;;;;;;4840932;29;20486;-85
2023/05/18 07:01:09;;;;;;;5.90;1.40;;;10.50;96.60;;;;;;4850902;29;20052;-84
2023/05/18 07:03:38;;;;;;;7.20;1.52;;;10.60;96.70;;;;;;4849598;29;20483;-84
2023/05/18 07:06:09;;;;;;;6.78;1.70;;;10.60;96.50;;;;;;4844027;29;20057;-83
2023/05/18 07:08:44;;;;;;;4.65;1.50;;;10.70;96.20;;;;;;4840251;29;20487;-84
2023/05/18 07:11:13;;;;;;;6.63;1.70;;;10.70;96.40;;;;;;4844081;29;20037;-84
2023/05/18 07:13:39;;;;;;;4.90;1.73;;;10.70;96.60;;;;;;4854731;29;20098;-84
2023/05/18 07:16:05;;;;;;;5.22;1.60;;;10.80;96.70;;;;;;4851531;29;20101;-83
2023/05/18 07:18:31;;;;;;;7.50;1.70;;;10.80;96.70;;;;;;4849101;29;20125;-83
2023/05/18 07:20:59;;;;;;;7.85;2.00;;;10.90;96.40;;;;;;4839571;29;20045;-84
2023/05/18 07:23:24;;;;;;;9.60;1.90;;;10.90;96.30;;;;;;4854451;29;20049;-83
2023/05/18 07:25:50;;;;;;;11.25;1.90;;;11.00;95.80;;;;;;4845172;29;20056;-84
2023/05/18 07:28:16;;;;;;;5.97;1.80;;;11.00;95.30;;;;;;4844845;29;20057;-83
2023/05/18 07:30:41;;;;;;;7.72;2.00;;;11.00;95.20;;;;;;4856053;29;20041;-82
2023/05/18 07:33:07;;;;;;;4.45;1.38;;;11.00;95.50;;;;;;4863050;29;20093;-83
2023/05/18 07:35:33;;;;;;;6.18;1.67;;;11.10;95.60;;;;;;4851852;29;20525;-83
2023/05/18 07:37:59;;;;;;;9.57;1.88;;;11.20;96.00;;;;;;4863939;29;20048;-83
2023/05/18 07:40:24;;;;;;;7.00;1.70;;;11.20;95.50;;;;;;4856696;24;20412;-82
2023/05/18 07:42:50;;;;;;;6.47;1.60;;;11.20;95.10;;;;;;4849575;29;20057;-83
2023/05/18 07:45:15;;;;;;;7.43;1.98;;;11.20;95.10;;;;;;4847697;29;20079;-84
2023/05/18 07:47:41;;;;;;;10.73;1.83;;;11.30;94.90;;;;;;4845444;29;20480;-83
2023/05/18 07:50:07;;;;;;;8.77;2.15;;;11.30;94.40;;;;;;4877338;29;20046;-84
2023/05/18 07:52:33;;;;;;;7.53;1.85;;;11.30;94.10;;;;;;4853448;29;20395;-84
2023/05/18 07:54:59;;;;;;;9.25;2.00;;;11.40;94.50;;;;;;4843818;29;20053;-84
2023/05/18 07:57:25;;;;;;;8.60;1.98;;;11.40;94.30;;;;;;4841491;29;20042;-84
2023/05/18 07:59:51;;;;;;;7.70;1.67;;;11.40;94.10;;;;;;4842386;29;20248;-84
2023/05/18 08:02:20;;;;;;;5.43;1.77;;;11.50;94.50;;;;;;4844558;29;20435;-84
2023/05/18 08:04:46;;;;;;;6.35;1.85;;;11.50;94.80;;;;;;4842777;29;20077;-84
2023/05/18 08:07:12;;;;;;;7.35;1.70;;;11.60;95.00;;;;;;4843575;29;20050;-83
2023/05/18 08:09:38;;;;;;;8.13;1.90;;;11.60;95.30;;;;;;4844511;29;20678;-84
2023/05/18 08:12:04;;;;;;;4.30;1.70;;;11.60;94.20;;;;;;4838874;29;20038;-84
2023/05/18 08:14:30;;;;;;;6.53;1.85;;;11.60;94.10;;;;;;4835901;29;20506;-84
2023/05/18 08:16:56;;;;;;;6.03;1.90;;;11.60;94.90;;;;;;4843985;29;20042;-84
2023/05/18 08:19:21;;;;;;;8.77;1.90;;;11.70;95.30;;;;;;4841774;29;20506;-84
2023/05/18 08:21:50;;;;;;;9.20;1.92;;;11.70;94.50;;;;;;4844419;29;20128;-84
2023/05/18 08:24:15;;;;;;;6.95;1.65;;;11.70;94.10;;;;;;4844176;29;20054;-84
2023/05/18 08:26:41;;;;;;;6.63;1.90;;;11.70;94.00;;;;;;4841713;29;20042;-84
2023/05/18 08:29:09;;;;;;;9.43;2.10;;;11.70;93.90;;;;;;4843522;29;20053;-84
2023/05/18 08:31:39;;;;;;;6.20;1.83;;;11.70;93.80;;;;;;4833071;29;20170;-84
2023/05/18 08:34:06;;;;;;;7.32;1.95;;;11.80;94.50;;;;;;4844660;29;20046;-84
2023/05/18 08:36:33;;;;;;;5.93;1.73;;;11.80;95.30;;;;;;4831947;29;20061;-84
2023/05/18 08:39:02;;;;;;;6.55;1.60;;;11.90;95.20;;;;;;4824153;29;20148;-83
2023/05/18 08:41:31;;;;;;;7.05;1.80;;;11.90;95.20;;;;;;4826122;29;20502;-84
2023/05/18 08:44:03;;;;;;;6.13;1.52;;;12.00;94.40;;;;;;4824851;29;20050;-83
2023/05/18 08:46:42;;;;;;;7.37;1.90;;;12.00;94.60;;;;;;4824132;29;20086;-84
2023/05/18 08:49:09;;;;;;;6.15;2.00;;;12.00;94.90;;;;;;4838290;29;20037;-84
2023/05/18 08:51:36;;;;;;;6.20;1.80;;;12.10;95.30;;;;;;4844132;29;20053;-84
2023/05/18 08:54:04;;;;;;;7.10;1.90;;;12.10;94.80;;;;;;4843958;29;20065;-83
2023/05/18 08:56:34;;;;;;;6.65;2.00;;;12.20;94.80;;;;;;4844302;29;20053;-84
2023/05/18 08:59:06;;;;;;;5.55;1.92;;;12.20;94.90;;;;;;4842384;29;20129;-84
2023/05/18 09:01:35;;;;;;;5.10;1.60;;;12.20;94.60;;;;;;4842472;29;20068;-84
2023/05/18 09:04:02;;;;;;;11.13;2.10;;;12.30;95.10;;;;;;4843161;29;20072;-84
2023/05/18 09:06:27;;;;;;;6.90;1.88;;;12.30;94.20;;;;;;4842941;29;20575;-84
2023/05/18 09:08:56;;;;;;;11.90;2.05;;;12.30;93.80;;;;;;4842951;29;20057;-84
2023/05/18 09:11:23;;;;;;;6.30;1.70;;;12.40;93.80;;;;;;4834466;29;20050;-85
2023/05/18 09:13:50;;;;;;;8.65;2.10;;;12.40;94.50;;;;;;4824754;29;20054;-84
2023/05/18 09:16:18;;;;;;;7.82;1.88;;;12.50;94.40;;;;;;4825667;29;20484;-84
2023/05/18 09:18:44;;;;;;;10.05;1.70;;;12.50;93.30;;;;;;4824221;29;20519;-84
2023/05/18 09:21:10;;;;;;;5.85;1.63;;;12.60;93.30;;;;;;4824821;29;20051;-88
2023/05/18 09:23:38;;;;;;;5.70;1.60;;;12.60;94.40;;;;;;4843358;29;20049;-83
2023/05/18 09:26:04;;;;;;;10.40;1.80;;;12.70;94.80;;;;;;4843207;29;20756;-83
2023/05/18 09:28:39;;;;;;;5.50;1.63;;;12.80;94.80;;;;;;4839558;29;20046;-82
2023/05/18 09:31:07;;;;;;;7.13;1.60;;;12.80;95.00;;;;;;4836786;29;20050;-82
2023/05/18 09:33:38;;;;;;;8.45;1.88;;;12.90;95.30;;;;;;4845188;29;20048;-84
2023/05/18 09:36:05;;;;;;;8.40;1.95;;;13.00;95.20;;;;;;4842632;29;20042;-82
2023/05/18 09:38:41;;;;;;;8.07;2.08;;;13.10;94.90;;;;;;4842557;29;20042;-85
2023/05/18 09:41:12;;;;;;;8.45;2.15;;;13.10;94.40;;;;;;4832997;29;20574;-83
2023/05/18 09:43:39;;;;;;;6.03;1.80;;;13.20;94.50;;;;;;4847997;29;20041;-85
2023/05/18 09:46:09;;;;;;;10.05;1.90;;;13.30;94.20;;;;;;4844591;29;20041;-84
2023/05/18 09:48:36;;;;;;;7.75;1.80;;;13.30;93.80;;;;;;4840753;29;20046;-83
2023/05/18 09:51:12;;;;;;;5.65;1.83;;;13.40;93.90;;;;;;4841532;29;20525;-83
2023/05/18 09:53:39;;;;;;;7.15;1.80;;;13.40;94.10;;;;;;4852456;29;20487;-83
2023/05/18 09:56:10;;;;;;;7.00;1.63;;;13.50;93.20;;;;;;4847814;29;20089;-81
2023/05/18 09:58:39;;;;;;;6.47;1.80;;;13.60;93.10;;;;;;4852769;29;20477;-83
2023/05/18 10:01:05;;;;;;;7.75;1.85;;;13.70;93.60;;;;;;4841267;29;20061;-83
2023/05/18 10:03:39;;;;;;;7.95;1.88;;;13.70;93.60;;;;;;4847372;29;20069;-82
2023/05/18 10:06:12;;;;;;;7.75;1.90;;;13.90;93.70;;;;;;4846077;29;20121;-82
2023/05/18 10:08:38;;;;;;;9.98;2.20;;;13.90;93.70;;;;;;4847689;29;20424;-82
2023/05/18 10:11:05;;;;;;;6.65;2.05;;;14.00;93.00;;;;;;4839506;29;20064;-83
2023/05/18 10:13:31;;;;;;;8.90;1.90;;;14.10;92.60;;;;;;4853263;29;20070;-82
2023/05/18 10:16:00;;;;;;;8.38;1.75;;;14.20;92.80;;;;;;4842896;29;20475;-83
2023/05/18 10:18:33;;;;;;;6.60;2.00;;;14.20;93.20;;;;;;4846439;29;20050;-83
2023/05/18 10:21:00;;;;;;;6.63;2.10;;;14.30;92.90;;;;;;4856633;29;20050;-83
2023/05/18 10:23:29;;;;;;;5.55;1.70;;;14.30;93.30;;;;;;4847216;29;20054;-82
2023/05/18 10:25:59;;;;;;;5.57;1.75;;;14.50;93.40;;;;;;4859302;29;20113;-83
2023/05/18 10:28:47;;;;;;;8.00;2.05;;;14.50;92.90;;;;;;4859695;29;20136;-83
2023/05/18 10:31:15;;;;;;;9.38;1.92;;;14.50;92.00;;;;;;4849195;29;20057;-83
2023/05/18 10:33:43;;;;;;;5.20;1.65;;;14.60;92.80;;;;;;4849724;29;20168;-84
2023/05/18 10:36:09;;;;;;;5.75;1.70;;;14.60;93.00;;;;;;4861123;29;20049;-82
2023/05/18 10:38:42;;;;;;;8.90;2.10;;;14.70;93.40;;;;;;4852176;29;20057;-83
2023/05/18 10:41:10;;;;;;;6.70;2.00;;;14.80;93.30;;;;;;4855547;29;20061;-82
2023/05/18 10:43:40;;;;;;;7.72;1.65;;;14.80;93.10;;;;;;4853500;29;20376;-83
2023/05/18 10:46:07;;;;;;;5.43;1.73;;;14.90;91.30;;;;;;4849166;29;20390;-82
2023/05/18 10:48:37;;;;;;;5.75;1.70;;;15.00;92.50;;;;;;4854352;29;20046;-82
2023/05/18 10:51:05;;;;;;;5.28;1.70;;;15.00;93.30;;;;;;4874819;29;20045;-83
2023/05/18 10:53:32;;;;;;;5.63;1.67;;;15.10;93.90;;;;;;4856107;29;20089;-82
2023/05/18 10:55:58;;;;;;;8.77;2.00;;;15.20;93.70;;;;;;4842506;29;20050;-82
2023/05/18 10:58:25;;;;;;;8.60;1.98;;;15.30;93.40;;;;;;4858173;29;20076;-83
2023/05/18 11:00:54;;;;;;;5.15;1.60;;;15.30;93.70;;;;;;4840948;29;20057;-83
2023/05/18 11:03:21;;;;;;;7.25;1.92;;;15.40;93.80;;;;;;4853885;29;20049;-83
2023/05/18 11:06:05;;;;;;;7.15;1.73;;;15.40;94.10;;;;;;4874883;29;20392;-82
2023/05/18 11:08:31;;;;;;;9.13;1.83;;;15.50;94.00;;;;;;4847627;29;20091;-82
2023/05/18 11:11:06;;;;;;;6.88;1.80;;;15.60;93.30;;;;;;4864002;29;20494;-82
2023/05/18 11:13:34;;;;;;;7.78;1.90;;;15.60;93.80;;;;;;4855700;29;20065;-82
2023/05/18 11:16:04;;;;;;;7.07;1.85;;;15.60;94.10;;;;;;4849038;29;20049;-83
2023/05/18 11:18:38;;;;;;;8.70;2.17;;;15.70;93.50;;;;;;4856117;29;20045;-83
2023/05/18 11:21:18;;;;;;;6.28;1.70;;;15.80;92.60;;;;;;4844229;29;20048;-82
2023/05/18 11:24:16;;;;;;;6.63;1.90;;;15.80;93.90;;;;;;4845826;29;20046;-82
2023/05/18 11:26:44;;;;;;;6.32;1.63;;;15.90;94.00;;;;;;4860991;29;20117;-82
2023/05/18 11:29:34;;;;;;;7.63;2.00;;;15.90;94.10;;;;;;4862850;29;20045;-82
2023/05/18 11:32:00;;;;;;;6.43;1.70;;;16.00;93.90;;;;;;4842852;29;20042;-81
2023/05/18 11:34:46;;;;;;;7.10;1.80;;;16.10;93.40;;;;;;4863727;29;20038;-82
2023/05/18 11:37:13;;;;;;;8.85;1.92;;;16.10;91.20;;;;;;4862711;29;20064;-81
2023/05/18 11:39:40;;;;;;;6.65;1.95;;;16.10;92.50;;;;;;4844001;29;20109;-84
2023/05/18 11:42:16;;;;;;;6.72;1.70;;;16.20;92.60;;;;;;4843557;29;20134;-83
2023/05/18 11:44:56;;;;;;;5.93;1.92;;;16.20;91.00;;;;;;4845792;29;20052;-82
2023/05/18 11:47:30;;;;;;;5.00;1.92;;;16.20;92.30;;;;;;4825665;29;20054;-82
2023/05/18 11:49:56;;;;;;;6.45;1.70;;;16.30;92.80;;;;;;4850679;29;20440;-83
2023/05/18 11:52:23;;;;;;;6.38;1.70;;;16.30;93.20;;;;;;4844649;29;20057;-83
2023/05/18 11:54:54;;;;;;;6.78;1.63;;;16.40;93.50;;;;;;4844293;29;20399;-83
2023/05/18 11:57:25;;;;;;;6.95;2.00;;;16.40;92.90;;;;;;4844209;29;20448;-83
2023/05/18 11:59:58;;;;;;;5.57;1.80;;;16.40;93.10;;;;;;4841851;29;20090;-82
2023/05/18 12:02:26;;;;;;;5.85;2.00;;;16.50;92.80;;;;;;4839061;29;20053;-84
2023/05/18 12:04:53;;;;;;;7.75;2.00;;;16.60;93.10;;;;;;4841029;29;20062;-83
2023/05/18 12:07:22;;;;;;;7.28;1.85;;;16.60;92.90;;;;;;4845762;29;20088;-83
2023/05/18 12:09:48;;;;;;;8.88;2.15;;;16.70;92.90;;;;;;4848752;29;20124;-83
2023/05/18 12:12:18;;;;;;;7.00;1.70;;;16.70;92.30;;;;;;4862434;29;20125;-84
2023/05/18 12:14:48;;;;;;;7.63;2.03;;;16.70;92.20;;;;;;4846492;29;20049;-82
2023/05/18 12:17:14;;;;;;;6.15;1.80;;;16.70;92.50;;;;;;4851389;29;20494;-84
2023/05/18 12:19:46;;;;;;;6.18;1.77;;;16.80;92.50;;;;;;4844384;29;20042;-84
2023/05/18 12:22:12;;;;;;;10.05;2.10;;;16.80;92.50;;;;;;4848436;29;20406;-85
2023/05/18 12:24:42;;;;;;;6.40;1.60;;;16.90;89.10;;;;;;4843301;29;20074;-84
2023/05/18 12:27:11;;;;;;;8.30;2.05;;;16.90;90.60;;;;;;4863848;29;20046;-86
2023/05/18 12:29:41;;;;;;;6.47;1.83;;;16.90;91.30;;;;;;4843211;29;20054;-85
2023/05/18 12:32:09;;;;;;;7.95;2.17;;;17.00;91.50;;;;;;4852672;29;20049;-84
2023/05/18 12:34:35;;;;;;;5.22;1.77;;;17.10;92.20;;;;;;4857230;29;20042;-85
2023/05/18 12:37:01;;;;;;;6.47;1.77;;;17.10;92.40;;;;;;4847218;29;20041;-83
2023/05/18 12:39:27;;;;;;;7.07;2.10;;;17.20;92.90;;;;;;4843586;29;20144;-84
2023/05/18 12:41:53;;;;;;;5.68;1.85;;;17.30;91.10;;;;;;4845949;29;20053;-84
2023/05/18 12:44:19;;;;;;;7.15;2.05;;;17.30;91.70;;;;;;4839506;29;20909;-84
2023/05/18 12:46:45;;;;;;;7.00;2.20;;;17.40;92.00;;;;;;4850571;29;20049;-83
2023/05/18 12:49:11;;;;;;;6.70;2.10;;;17.40;92.50;;;;;;4861901;29;20125;-85
2023/05/18 12:51:38;;;;;;;6.72;2.28;;;17.50;92.90;;;;;;4843568;29;20060;-83
2023/05/18 12:54:05;;;;;;;7.05;1.83;;;17.60;93.30;;;;;;4843368;29;20049;-84
2023/05/18 12:56:50;;;;;;;5.93;1.73;;;17.60;92.20;;;;;;4843341;29;20490;-83
2023/05/18 12:59:19;;;;;;;8.60;2.20;;;17.70;92.50;;;;;;4843110;29;20061;-84